Time;durP1;ratioP1;P1;durP2;ratioP2;P2;SDS_P1;SDS_P2;PMS_P1;PMS_P2;Temp;Humidity;BMP_temperature;BMP_pressure;BME280_temperature;BME280_humidity;BME280_pressure;Samples;Min_cycle;Max_cycle;Signal;HPM_P1;HPM_P2
2020/12/18 00:01:57;;;;;;;2.90;2.70;;;;;;;;;;5095656;28;20202;-62
2020/12/18 00:04:23;;;;;;;2.67;2.47;;;;;;;;;;5094822;28;20192;-62
2020/12/18 00:06:49;;;;;;;2.50;2.30;;;;;;;;;;5095375;28;20240;-61
2020/12/18 00:09:15;;;;;;;2.75;2.42;;;;;;;;;;5095828;28;20457;-62
2020/12/18 00:11:40;;;;;;;2.60;2.40;;;;;;;;;;5096192;28;20177;-62
2020/12/18 00:14:06;;;;;;;2.53;2.33;;;;;;;;;;5093619;28;20880;-62
2020/12/18 00:16:34;;;;;;;3.08;2.88;;;;;;;;;;5082336;28;20287;-62
2020/12/18 00:19:00;;;;;;;2.72;2.53;;;;;;;;;;5090158;28;20171;-62
2020/12/18 00:21:26;;;;;;;2.97;2.75;;;;;;;;;;5075722;28;20627;-62
2020/12/18 00:23:52;;;;;;;2.78;2.58;;;;;;;;;;5075032;28;20237;-62
2020/12/18 00:26:18;;;;;;;2.47;2.22;;;;;;;;;;5074846;28;20179;-62
2020/12/18 00:28:45;;;;;;;2.63;2.42;;;;;;;;;;5086375;28;20213;-62
2020/12/18 00:31:11;;;;;;;2.60;2.40;;;;;;;;;;5080362;28;20197;-62
2020/12/18 00:33:37;;;;;;;2.78;2.58;;;;;;;;;;5092685;28;20202;-62
2020/12/18 00:36:04;;;;;;;2.40;2.30;;;;;;;;;;5095003;28;20170;-62
2020/12/18 00:38:30;;;;;;;2.58;2.38;;;;;;;;;;5095646;28;20178;-62
2020/12/18 00:40:56;;;;;;;2.40;2.20;;;;;;;;;;5095405;28;20174;-62
2020/12/18 00:43:22;;;;;;;2.47;2.28;;;;;;;;;;5094394;28;20223;-62
2020/12/18 00:45:48;;;;;;;2.42;2.22;;;;;;;;;;5094548;28;20178;-62
2020/12/18 00:48:14;;;;;;;2.20;2.10;;;;;;;;;;5094986;28;20189;-62
2020/12/18 00:50:40;;;;;;;2.20;1.98;;;;;;;;;;5078769;28;20188;-61
2020/12/18 00:53:07;;;;;;;3.33;2.25;;;;;;;;;;5075299;28;20569;-61
2020/12/18 00:55:33;;;;;;;2.20;2.00;;;;;;;;;;5075045;28;20170;-61
2020/12/18 00:57:59;;;;;;;2.40;2.20;;;;;;;;;;5078914;28;20170;-61
2020/12/18 01:00:25;;;;;;;2.50;2.30;;;;;;;;;;5084663;28;20216;-61
2020/12/18 01:02:51;;;;;;;2.42;2.22;;;;;;;;;;5081089;28;20581;-61
2020/12/18 01:05:17;;;;;;;2.13;2.03;;;;;;;;;;5096656;28;20204;-61
2020/12/18 01:07:43;;;;;;;2.38;2.17;;;;;;;;;;5098088;28;20185;-61
2020/12/18 01:10:09;;;;;;;2.33;2.13;;;;;;;;;;5099807;28;20352;-61
2020/12/18 01:12:35;;;;;;;2.22;2.00;;;;;;;;;;5099547;28;20201;-61
2020/12/18 01:15:01;;;;;;;2.05;1.95;;;;;;;;;;5086089;28;20186;-62
2020/12/18 01:17:27;;;;;;;2.63;2.15;;;;;;;;;;5081551;28;20781;-62
2020/12/18 01:19:53;;;;;;;2.30;2.10;;;;;;;;;;5099286;28;20173;-62
2020/12/18 01:22:19;;;;;;;2.40;2.15;;;;;;;;;;5094013;28;20577;-61
2020/12/18 01:24:45;;;;;;;1.90;1.75;;;;;;;;;;5078048;28;20461;-61
2020/12/18 01:27:12;;;;;;;2.20;2.10;;;;;;;;;;5079413;28;20178;-62
2020/12/18 01:29:38;;;;;;;2.72;2.50;;;;;;;;;;5078918;28;20171;-62
2020/12/18 01:32:04;;;;;;;2.15;1.88;;;;;;;;;;5083192;28;20177;-62
2020/12/18 01:34:30;;;;;;;2.20;2.00;;;;;;;;;;5098723;28;20170;-63
2020/12/18 01:36:56;;;;;;;1.98;1.80;;;;;;;;;;5099117;28;20162;-62
2020/12/18 01:39:22;;;;;;;2.08;1.98;;;;;;;;;;5089685;28;20197;-62
2020/12/18 01:41:48;;;;;;;2.00;1.90;;;;;;;;;;5098843;28;20177;-63
2020/12/18 01:44:14;;;;;;;1.90;1.80;;;;;;;;;;5118551;28;20173;-62
2020/12/18 01:46:41;;;;;;;2.10;2.00;;;;;;;;;;5118125;28;20771;-62
2020/12/18 01:49:07;;;;;;;2.00;1.90;;;;;;;;;;5102316;28;20178;-62
2020/12/18 01:51:33;;;;;;;2.22;2.03;;;;;;;;;;5098634;28;20239;-62
2020/12/18 01:53:59;;;;;;;2.00;1.90;;;;;;;;;;5098217;28;20577;-62
2020/12/18 01:56:25;;;;;;;1.98;1.88;;;;;;;;;;5096907;28;20192;-62
2020/12/18 01:58:53;;;;;;;1.95;1.83;;;;;;;;;;5097830;28;20186;-62
2020/12/18 02:01:19;;;;;;;1.90;1.80;;;;;;;;;;5098783;28;20186;-62
2020/12/18 02:03:45;;;;;;;2.17;2.00;;;;;;;;;;5096436;28;20220;-62
2020/12/18 02:06:18;;;;;;;2.08;1.75;;;;;;;;;;5084276;28;20218;-63
2020/12/18 02:08:45;;;;;;;2.00;1.90;;;;;;;;;;5095792;28;20189;-62
2020/12/18 02:11:12;;;;;;;3.15;2.00;;;;;;;;;;5098338;28;20189;-62
2020/12/18 02:13:38;;;;;;;2.00;1.80;;;;;;;;;;5086485;28;20217;-62
2020/12/18 02:16:04;;;;;;;1.88;1.77;;;;;;;;;;5096447;28;20170;-62
2020/12/18 02:18:31;;;;;;;1.65;1.55;;;;;;;;;;5098043;28;20327;-62
2020/12/18 02:20:57;;;;;;;1.70;1.60;;;;;;;;;;5080789;28;20273;-62
2020/12/18 02:23:23;;;;;;;1.90;1.73;;;;;;;;;;5077940;28;20214;-62
2020/12/18 02:26:27;;;;;;;1.80;1.70;;;;;;;;;;5077202;28;20206;-62
2020/12/18 02:28:53;;;;;;;1.60;1.50;;;;;;;;;;5051274;28;20191;-63
2020/12/18 02:31:19;;;;;;;1.90;1.80;;;;;;;;;;5040982;28;20199;-62
2020/12/18 02:33:45;;;;;;;1.73;1.63;;;;;;;;;;5055865;28;20536;-63
2020/12/18 02:36:12;;;;;;;1.80;1.70;;;;;;;;;;5077011;28;20182;-62
2020/12/18 02:38:39;;;;;;;2.47;1.77;;;;;;;;;;5091750;28;20603;-62
2020/12/18 02:41:05;;;;;;;1.73;1.63;;;;;;;;;;5097748;28;20235;-62
2020/12/18 02:43:31;;;;;;;1.45;1.35;;;;;;;;;;5097583;28;20221;-63
2020/12/18 02:45:57;;;;;;;1.65;1.50;;;;;;;;;;5096533;28;20174;-62
2020/12/18 02:48:23;;;;;;;1.70;1.60;;;;;;;;;;5090762;28;20187;-62
2020/12/18 02:50:49;;;;;;;1.77;1.67;;;;;;;;;;5097402;28;20491;-62
2020/12/18 02:53:16;;;;;;;1.80;1.70;;;;;;;;;;5097642;28;20616;-63
2020/12/18 02:55:43;;;;;;;2.83;1.85;;;;;;;;;;5096773;28;20244;-62
2020/12/18 02:58:09;;;;;;;1.63;1.52;;;;;;;;;;5091473;28;20188;-63
2020/12/18 03:00:35;;;;;;;1.70;1.60;;;;;;;;;;5096796;28;20206;-63
2020/12/18 03:03:02;;;;;;;1.90;1.80;;;;;;;;;;5097011;28;20193;-63
2020/12/18 03:05:27;;;;;;;1.50;1.40;;;;;;;;;;5096858;28;20540;-62
2020/12/18 03:07:53;;;;;;;1.40;1.30;;;;;;;;;;5096858;28;20273;-62
2020/12/18 03:10:19;;;;;;;1.80;1.42;;;;;;;;;;5096446;28;20177;-62
2020/12/18 03:12:45;;;;;;;1.80;1.70;;;;;;;;;;5097093;28;20790;-62
2020/12/18 03:15:12;;;;;;;1.50;1.40;;;;;;;;;;5095262;28;20186;-62
2020/12/18 03:17:38;;;;;;;1.67;1.58;;;;;;;;;;5097041;28;20182;-63
2020/12/18 03:20:04;;;;;;;1.60;1.50;;;;;;;;;;5096821;28;20178;-63
2020/12/18 03:22:31;;;;;;;1.60;1.50;;;;;;;;;;5096856;28;20467;-62
2020/12/18 03:24:58;;;;;;;3.15;1.45;;;;;;;;;;5095794;28;20178;-62
2020/12/18 03:27:24;;;;;;;1.80;1.63;;;;;;;;;;5095737;28;20185;-62
2020/12/18 03:29:50;;;;;;;1.50;1.40;;;;;;;;;;5095632;28;20209;-62
2020/12/18 03:32:16;;;;;;;1.20;1.20;;;;;;;;;;5097133;28;20682;-62
2020/12/18 03:34:42;;;;;;;1.63;1.42;;;;;;;;;;5096017;28;20188;-62
2020/12/18 03:37:08;;;;;;;1.52;1.42;;;;;;;;;;5096740;28;20626;-62
2020/12/18 03:39:35;;;;;;;1.58;1.48;;;;;;;;;;5095972;28;20257;-62
2020/12/18 03:42:01;;;;;;;1.60;1.50;;;;;;;;;;5095752;28;20243;-63
2020/12/18 03:44:27;;;;;;;1.45;1.35;;;;;;;;;;5095804;28;20218;-62
2020/12/18 03:46:53;;;;;;;1.52;1.42;;;;;;;;;;5095164;28;20519;-62
2020/12/18 03:49:19;;;;;;;1.30;1.20;;;;;;;;;;5095914;28;20189;-62
2020/12/18 03:51:45;;;;;;;1.50;1.40;;;;;;;;;;5096409;28;20193;-63
2020/12/18 03:54:11;;;;;;;1.80;1.30;;;;;;;;;;5095375;28;20198;-62
2020/12/18 03:56:37;;;;;;;1.40;1.30;;;;;;;;;;5095724;28;20556;-62
2020/12/18 03:59:03;;;;;;;1.75;1.40;;;;;;;;;;5095853;28;20189;-63
2020/12/18 04:01:29;;;;;;;1.52;1.42;;;;;;;;;;5096479;28;20251;-62
2020/12/18 04:03:55;;;;;;;1.30;1.20;;;;;;;;;;5095711;28;20218;-62
2020/12/18 04:06:21;;;;;;;1.50;1.40;;;;;;;;;;5083530;28;20182;-62
2020/12/18 04:08:47;;;;;;;1.33;1.23;;;;;;;;;;5088193;28;20189;-62
2020/12/18 04:11:13;;;;;;;1.40;1.30;;;;;;;;;;5094973;28;20181;-62
2020/12/18 04:13:40;;;;;;;1.30;1.20;;;;;;;;;;5094910;28;20576;-62
2020/12/18 04:16:06;;;;;;;1.50;1.40;;;;;;;;;;5093793;28;20174;-62
2020/12/18 04:18:32;;;;;;;1.27;1.25;;;;;;;;;;5095876;28;20185;-62
2020/12/18 04:20:59;;;;;;;1.40;1.30;;;;;;;;;;5094976;28;20182;-62
2020/12/18 04:23:25;;;;;;;1.30;1.20;;;;;;;;;;5094754;28;20265;-62
2020/12/18 04:25:51;;;;;;;2.83;1.38;;;;;;;;;;5095232;28;20606;-62
2020/12/18 04:28:17;;;;;;;1.13;1.13;;;;;;;;;;5096149;28;20174;-62
2020/12/18 04:30:43;;;;;;;1.38;1.27;;;;;;;;;;5095201;28;20868;-62
2020/12/18 04:33:09;;;;;;;1.30;1.20;;;;;;;;;;5095603;28;20244;-62
2020/12/18 04:35:35;;;;;;;2.15;1.30;;;;;;;;;;5093705;28;20200;-62
2020/12/18 04:38:01;;;;;;;1.45;1.35;;;;;;;;;;5079909;28;20186;-62
2020/12/18 04:40:28;;;;;;;1.25;1.15;;;;;;;;;;5094968;28;20268;-62
2020/12/18 04:42:55;;;;;;;1.48;1.38;;;;;;;;;;5095382;28;20201;-62
2020/12/18 04:45:21;;;;;;;1.42;1.33;;;;;;;;;;5094862;28;20189;-62
2020/12/18 04:47:48;;;;;;;1.27;1.20;;;;;;;;;;5095244;28;20205;-63
2020/12/18 04:50:15;;;;;;;1.25;1.23;;;;;;;;;;5093887;28;20177;-63
2020/12/18 04:52:41;;;;;;;2.00;1.20;;;;;;;;;;5094953;28;20198;-62
2020/12/18 04:55:08;;;;;;;1.50;1.40;;;;;;;;;;5095038;28;20184;-62
2020/12/18 04:57:35;;;;;;;1.60;1.30;;;;;;;;;;5095455;28;20170;-62
2020/12/18 05:00:04;;;;;;;1.42;1.33;;;;;;;;;;5094976;28;20584;-63
2020/12/18 05:02:30;;;;;;;1.25;1.15;;;;;;;;;;5095479;28;20190;-62
2020/12/18 05:04:56;;;;;;;1.45;1.35;;;;;;;;;;5104453;28;20502;-62
2020/12/18 05:07:23;;;;;;;2.08;1.33;;;;;;;;;;5084785;28;20186;-62
2020/12/18 05:09:51;;;;;;;1.40;1.30;;;;;;;;;;5084808;28;20170;-63
2020/12/18 05:12:17;;;;;;;1.60;1.30;;;;;;;;;;5115771;28;20564;-63
2020/12/18 05:14:43;;;;;;;1.35;1.25;;;;;;;;;;5114198;28;20181;-62
2020/12/18 05:17:09;;;;;;;1.20;1.20;;;;;;;;;;5114450;28;20536;-62
2020/12/18 05:19:39;;;;;;;1.27;1.20;;;;;;;;;;5094816;28;20186;-62
2020/12/18 05:22:06;;;;;;;1.58;1.40;;;;;;;;;;5094136;28;20174;-63
2020/12/18 05:24:32;;;;;;;2.55;1.45;;;;;;;;;;5094581;28;20198;-62
2020/12/18 05:27:01;;;;;;;3.63;2.00;;;;;;;;;;5093508;28;20278;-62
2020/12/18 05:29:28;;;;;;;3.05;1.90;;;;;;;;;;5094886;28;20178;-62
2020/12/18 05:31:55;;;;;;;5.97;2.10;;;;;;;;;;5090697;28;20204;-63
2020/12/18 05:34:21;;;;;;;3.92;2.00;;;;;;;;;;5074593;28;20469;-62
2020/12/18 05:36:48;;;;;;;4.35;2.30;;;;;;;;;;5074641;28;20171;-62
2020/12/18 05:39:14;;;;;;;7.22;1.70;;;;;;;;;;5075181;28;20174;-62
2020/12/18 05:41:42;;;;;;;2.10;1.70;;;;;;;;;;5092743;28;20188;-62
2020/12/18 05:44:08;;;;;;;2.78;1.70;;;;;;;;;;5114781;28;20482;-62
2020/12/18 05:46:34;;;;;;;7.35;2.33;;;;;;;;;;5090279;28;20233;-62
2020/12/18 05:49:01;;;;;;;3.70;2.10;;;;;;;;;;5093622;28;20209;-62
2020/12/18 05:51:29;;;;;;;6.53;2.15;;;;;;;;;;5097153;28;20254;-62
2020/12/18 05:54:08;;;;;;;5.53;2.10;;;;;;;;;;5088267;28;20533;-62
2020/12/18 05:56:34;;;;;;;9.15;2.05;;;;;;;;;;5078165;28;20447;-62
2020/12/18 05:59:13;;;;;;;5.95;2.20;;;;;;;;;;5081859;28;20170;-62
2020/12/18 06:01:49;;;;;;;5.60;2.20;;;;;;;;;;5092337;28;20227;-62
2020/12/18 06:04:15;;;;;;;4.00;1.92;;;;;;;;;;5077816;28;20445;-62
2020/12/18 06:07:01;;;;;;;3.63;1.90;;;;;;;;;;5077988;28;20178;-62
2020/12/18 06:09:27;;;;;;;6.97;2.10;;;;;;;;;;5078022;28;20175;-62
2020/12/18 06:11:53;;;;;;;6.20;2.40;;;;;;;;;;5078074;28;20175;-63
2020/12/18 06:14:20;;;;;;;4.47;2.00;;;;;;;;;;5091136;28;20285;-62
2020/12/18 06:16:50;;;;;;;4.47;2.08;;;;;;;;;;5087123;28;20165;-62
2020/12/18 06:19:17;;;;;;;4.75;2.00;;;;;;;;;;5089307;28;20606;-62
2020/12/18 06:21:53;;;;;;;8.38;1.85;;;;;;;;;;5090558;28;20265;-62
2020/12/18 06:24:19;;;;;;;5.38;1.80;;;;;;;;;;5097924;28;20200;-62
2020/12/18 06:26:46;;;;;;;2.88;1.83;;;;;;;;;;5096782;28;20201;-62
2020/12/18 06:29:16;;;;;;;4.70;2.00;;;;;;;;;;5088237;28;20183;-62
2020/12/18 06:31:42;;;;;;;3.97;1.90;;;;;;;;;;5077607;28;20437;-62
2020/12/18 06:34:10;;;;;;;2.78;1.90;;;;;;;;;;5077152;28;20194;-62
2020/12/18 06:36:48;;;;;;;3.78;1.90;;;;;;;;;;5077763;28;20196;-62
2020/12/18 06:39:20;;;;;;;3.13;1.80;;;;;;;;;;5077976;28;20212;-62
2020/12/18 06:41:46;;;;;;;3.17;1.70;;;;;;;;;;5096750;28;20552;-62
2020/12/18 06:44:38;;;;;;;3.22;1.92;;;;;;;;;;5098963;28;20204;-62
2020/12/18 06:47:08;;;;;;;3.53;1.70;;;;;;;;;;5092950;28;20198;-62
2020/12/18 06:49:53;;;;;;;4.93;2.03;;;;;;;;;;5093986;28;20190;-62
2020/12/18 06:52:38;;;;;;;4.00;1.50;;;;;;;;;;5077016;28;20267;-62
2020/12/18 06:55:04;;;;;;;3.63;1.98;;;;;;;;;;5091326;28;20178;-62
2020/12/18 06:57:30;;;;;;;3.00;1.85;;;;;;;;;;5096882;28;20412;-62
2020/12/18 07:00:15;;;;;;;4.38;2.00;;;;;;;;;;5097462;28;20189;-62
2020/12/18 07:02:41;;;;;;;5.28;1.90;;;;;;;;;;5096656;28;20178;-62
2020/12/18 07:05:27;;;;;;;2.22;1.65;;;;;;;;;;5096594;28;20427;-62
2020/12/18 07:07:54;;;;;;;2.92;1.80;;;;;;;;;;5096434;28;20178;-62
2020/12/18 07:10:24;;;;;;;3.00;2.00;;;;;;;;;;5097213;28;20552;-62
2020/12/18 07:12:50;;;;;;;2.55;1.88;;;;;;;;;;5080152;28;20195;-63
2020/12/18 07:15:17;;;;;;;2.58;1.92;;;;;;;;;;5075914;28;20202;-62
2020/12/18 07:17:47;;;;;;;3.63;2.08;;;;;;;;;;5085623;28;20265;-62
2020/12/18 07:20:13;;;;;;;2.50;1.90;;;;;;;;;;5097351;28;20177;-62
2020/12/18 07:22:39;;;;;;;2.75;1.92;;;;;;;;;;5095903;28;20173;-62
2020/12/18 07:25:12;;;;;;;3.60;2.17;;;;;;;;;;5090474;28;20182;-62
2020/12/18 07:27:38;;;;;;;2.33;1.70;;;;;;;;;;5083631;28;20173;-62
2020/12/18 07:30:09;;;;;;;2.03;1.60;;;;;;;;;;5096606;28;20182;-62
2020/12/18 07:32:35;;;;;;;3.13;1.60;;;;;;;;;;5096841;28;20186;-62
2020/12/18 07:35:08;;;;;;;2.55;1.98;;;;;;;;;;5094960;28;20174;-62
2020/12/18 07:37:34;;;;;;;2.28;1.58;;;;;;;;;;5096785;28;20185;-62
2020/12/18 07:40:01;;;;;;;2.00;1.73;;;;;;;;;;5091996;28;20174;-62
2020/12/18 07:42:27;;;;;;;3.58;1.92;;;;;;;;;;5096836;28;20210;-62
2020/12/18 07:45:06;;;;;;;1.65;1.42;;;;;;;;;;5095131;28;20178;-62
2020/12/18 07:47:34;;;;;;;1.83;1.58;;;;;;;;;;5096139;28;20173;-63
2020/12/18 07:50:00;;;;;;;2.55;1.73;;;;;;;;;;5080858;28;20585;-62
2020/12/18 07:52:27;;;;;;;1.90;1.45;;;;;;;;;;5095306;28;20264;-62
2020/12/18 07:54:56;;;;;;;2.42;1.50;;;;;;;;;;5094771;28;20174;-62
2020/12/18 07:57:22;;;;;;;2.00;1.75;;;;;;;;;;5096286;28;20181;-62
2020/12/18 07:59:48;;;;;;;1.60;1.50;;;;;;;;;;5096323;28;20170;-62
2020/12/18 08:02:21;;;;;;;2.67;1.55;;;;;;;;;;5096301;28;20185;-62
2020/12/18 08:04:56;;;;;;;2.00;1.80;;;;;;;;;;5094350;28;20444;-62
2020/12/18 08:07:22;;;;;;;2.22;1.52;;;;;;;;;;5090455;28;20169;-62
2020/12/18 08:09:57;;;;;;;2.38;1.83;;;;;;;;;;5104478;28;20184;-62
2020/12/18 08:12:23;;;;;;;3.15;2.03;;;;;;;;;;5113672;28;20200;-62
2020/12/18 08:14:49;;;;;;;2.38;1.80;;;;;;;;;;5094879;28;20184;-62
2020/12/18 08:17:24;;;;;;;2.85;1.65;;;;;;;;;;5096267;28;20251;-62
2020/12/18 08:19:51;;;;;;;1.52;1.40;;;;;;;;;;5095933;28;20188;-62
2020/12/18 08:22:19;;;;;;;2.83;1.65;;;;;;;;;;5094216;28;20205;-61
2020/12/18 08:24:47;;;;;;;2.60;1.75;;;;;;;;;;5084282;28;20196;-61
2020/12/18 08:27:21;;;;;;;2.45;1.83;;;;;;;;;;5075943;28;20589;-61
2020/12/18 08:29:48;;;;;;;2.00;1.77;;;;;;;;;;5075222;28;20192;-61
2020/12/18 08:32:23;;;;;;;3.17;1.98;;;;;;;;;;5075848;28;20178;-61
2020/12/18 08:34:50;;;;;;;3.80;1.70;;;;;;;;;;5074516;28;20186;-61
2020/12/18 08:37:21;;;;;;;3.25;1.40;;;;;;;;;;5084056;28;20197;-61
2020/12/18 08:39:47;;;;;;;3.80;1.88;;;;;;;;;;5094957;28;20220;-61
2020/12/18 08:42:14;;;;;;;3.83;1.85;;;;;;;;;;5105953;28;20181;-60
2020/12/18 08:44:42;;;;;;;3.42;2.42;;;;;;;;;;5094690;28;20184;-61
2020/12/18 08:47:18;;;;;;;75.05;16.30;;;;;;;;;;5094492;28;20231;-61
2020/12/18 08:49:44;;;;;;;101.35;20.45;;;;;;;;;;5095324;28;20278;-61
2020/12/18 08:52:10;;;;;;;113.78;21.95;;;;;;;;;;5094286;28;20580;-61
2020/12/18 08:54:40;;;;;;;96.65;19.75;;;;;;;;;;5091690;28;20205;-61
2020/12/18 08:57:12;;;;;;;84.63;19.60;;;;;;;;;;5095168;28;20173;-61
2020/12/18 08:59:38;;;;;;;77.57;18.25;;;;;;;;;;5095340;28;20182;-61
2020/12/18 09:02:04;;;;;;;67.10;17.17;;;;;;;;;;5094775;28;20242;-61
2020/12/18 09:04:30;;;;;;;64.25;16.05;;;;;;;;;;5092320;28;20186;-61
2020/12/18 09:06:56;;;;;;;63.25;14.45;;;;;;;;;;5090891;28;20170;-61
2020/12/18 09:09:22;;;;;;;66.45;14.95;;;;;;;;;;5080345;28;20189;-61
2020/12/18 09:11:49;;;;;;;49.78;13.75;;;;;;;;;;5094673;28;20419;-61
2020/12/18 09:14:30;;;;;;;55.58;14.38;;;;;;;;;;5094849;28;20198;-61
2020/12/18 09:16:56;;;;;;;55.92;13.55;;;;;;;;;;5095228;28;20719;-61
2020/12/18 09:19:23;;;;;;;48.15;13.55;;;;;;;;;;5095327;28;20561;-61
2020/12/18 09:21:48;;;;;;;42.20;13.43;;;;;;;;;;5094791;28;20422;-61
2020/12/18 09:24:24;;;;;;;40.60;12.52;;;;;;;;;;5093152;28;20194;-61
2020/12/18 09:26:50;;;;;;;45.70;12.82;;;;;;;;;;5077308;28;20178;-61
2020/12/18 09:29:19;;;;;;;39.80;12.63;;;;;;;;;;5079235;28;20189;-61
2020/12/18 09:31:46;;;;;;;40.47;11.82;;;;;;;;;;5078849;28;20189;-61
2020/12/18 09:34:16;;;;;;;47.72;12.48;;;;;;;;;;5078482;28;20196;-62
2020/12/18 09:36:42;;;;;;;33.05;11.18;;;;;;;;;;5078726;28;20175;-62
2020/12/18 09:39:08;;;;;;;35.13;11.00;;;;;;;;;;5078858;28;20175;-62
2020/12/18 09:41:34;;;;;;;33.42;11.13;;;;;;;;;;5087267;28;20548;-61
2020/12/18 09:44:00;;;;;;;32.65;10.35;;;;;;;;;;5098603;28;20174;-62
2020/12/18 09:46:26;;;;;;;31.33;9.93;;;;;;;;;;5098194;28;20227;-61
2020/12/18 09:48:52;;;;;;;34.95;10.88;;;;;;;;;;5098236;28;20170;-61
2020/12/18 09:51:18;;;;;;;32.60;10.32;;;;;;;;;;5099076;28;20182;-61
2020/12/18 09:53:45;;;;;;;33.50;9.98;;;;;;;;;;5097608;28;20252;-61
2020/12/18 09:56:11;;;;;;;35.97;10.60;;;;;;;;;;5098138;28;20189;-62
2020/12/18 09:58:37;;;;;;;32.17;10.68;;;;;;;;;;5097886;28;20185;-61
2020/12/18 10:01:04;;;;;;;32.28;9.88;;;;;;;;;;5098507;28;20177;-61
2020/12/18 10:03:30;;;;;;;28.83;9.68;;;;;;;;;;5098773;28;20447;-61
2020/12/18 10:05:56;;;;;;;25.08;9.60;;;;;;;;;;5097638;28;20541;-61
2020/12/18 10:08:22;;;;;;;23.38;8.68;;;;;;;;;;5097943;28;20170;-61
2020/12/18 10:10:48;;;;;;;22.83;9.00;;;;;;;;;;5097174;28;20178;-61
2020/12/18 10:13:14;;;;;;;25.67;9.30;;;;;;;;;;5087877;28;20193;-61
2020/12/18 10:15:41;;;;;;;23.08;9.43;;;;;;;;;;5095768;28;20178;-61
2020/12/18 10:18:07;;;;;;;24.25;8.75;;;;;;;;;;5098372;28;20178;-61
2020/12/18 10:20:33;;;;;;;25.52;8.38;;;;;;;;;;5098444;28;20181;-61
2020/12/18 10:22:59;;;;;;;23.60;8.63;;;;;;;;;;5097812;28;20212;-61
2020/12/18 10:25:25;;;;;;;23.60;8.48;;;;;;;;;;5097806;28;20216;-61
2020/12/18 10:27:51;;;;;;;24.35;9.32;;;;;;;;;;5098043;28;20186;-61
2020/12/18 10:30:17;;;;;;;21.58;8.27;;;;;;;;;;5090988;28;20175;-61
2020/12/18 10:32:45;;;;;;;25.45;8.27;;;;;;;;;;5077622;28;20183;-61
2020/12/18 10:35:11;;;;;;;19.98;8.00;;;;;;;;;;5077370;28;20171;-61
2020/12/18 10:37:37;;;;;;;23.05;7.47;;;;;;;;;;5076420;28;20175;-61
2020/12/18 10:40:04;;;;;;;21.00;7.70;;;;;;;;;;5077668;28;20868;-61
2020/12/18 10:42:30;;;;;;;20.55;7.80;;;;;;;;;;5109272;28;20218;-61
2020/12/18 10:44:56;;;;;;;17.92;7.72;;;;;;;;;;5116861;28;20185;-61
2020/12/18 10:47:22;;;;;;;20.08;8.25;;;;;;;;;;5082756;28;20218;-61
2020/12/18 10:49:48;;;;;;;18.40;7.60;;;;;;;;;;5093866;28;20178;-61
2020/12/18 10:52:14;;;;;;;15.73;7.13;;;;;;;;;;5097205;28;20760;-61
2020/12/18 10:54:40;;;;;;;18.63;7.22;;;;;;;;;;5097322;28;20193;-61
2020/12/18 10:57:06;;;;;;;15.65;7.10;;;;;;;;;;5097411;28;20170;-61
2020/12/18 10:59:33;;;;;;;13.13;6.93;;;;;;;;;;5097647;28;20253;-61
2020/12/18 11:02:00;;;;;;;14.45;6.32;;;;;;;;;;5096390;28;20177;-61
2020/12/18 11:04:26;;;;;;;16.58;6.70;;;;;;;;;;5097006;28;20189;-61
2020/12/18 11:06:52;;;;;;;17.23;6.18;;;;;;;;;;5096887;28;20184;-61
2020/12/18 11:09:18;;;;;;;15.20;6.22;;;;;;;;;;5097340;28;20170;-61
2020/12/18 11:11:45;;;;;;;11.45;5.97;;;;;;;;;;5097217;28;20181;-61
2020/12/18 11:14:11;;;;;;;13.77;6.38;;;;;;;;;;5096806;28;20569;-61
2020/12/18 11:16:38;;;;;;;15.90;5.75;;;;;;;;;;5093066;28;20227;-61
2020/12/18 11:19:04;;;;;;;14.18;6.43;;;;;;;;;;5086541;28;20190;-61
2020/12/18 11:21:31;;;;;;;14.52;6.53;;;;;;;;;;5082361;28;20201;-61
2020/12/18 11:23:57;;;;;;;13.10;5.95;;;;;;;;;;5096468;28;20198;-62
2020/12/18 11:26:24;;;;;;;15.43;6.18;;;;;;;;;;5096840;28;20200;-61
2020/12/18 11:28:50;;;;;;;12.20;5.70;;;;;;;;;;5096948;28;20205;-61
2020/12/18 11:31:16;;;;;;;13.30;5.93;;;;;;;;;;5097147;28;20182;-62
2020/12/18 11:33:43;;;;;;;13.07;5.88;;;;;;;;;;5086804;28;20739;-61
2020/12/18 11:36:09;;;;;;;12.38;5.40;;;;;;;;;;5091314;28;20270;-61
2020/12/18 11:38:35;;;;;;;12.05;5.20;;;;;;;;;;5096932;28;20549;-61
2020/12/18 11:41:01;;;;;;;12.60;5.38;;;;;;;;;;5099868;28;20169;-62
2020/12/18 11:43:27;;;;;;;12.25;5.18;;;;;;;;;;5116286;28;20260;-61
2020/12/18 11:45:53;;;;;;;10.13;4.93;;;;;;;;;;5115706;28;20252;-61
2020/12/18 11:48:18;;;;;;;10.65;5.05;;;;;;;;;;5095035;28;20319;-61
2020/12/18 11:50:45;;;;;;;11.85;4.90;;;;;;;;;;5089273;28;20208;-61
2020/12/18 11:53:11;;;;;;;10.57;4.88;;;;;;;;;;5083497;28;20202;-62
2020/12/18 11:55:38;;;;;;;12.13;5.47;;;;;;;;;;5095520;28;20192;-61
2020/12/18 11:58:04;;;;;;;11.85;4.28;;;;;;;;;;5096430;28;20489;-62
2020/12/18 12:00:30;;;;;;;9.88;4.82;;;;;;;;;;5096227;28;20443;-62
2020/12/18 12:02:56;;;;;;;10.45;4.22;;;;;;;;;;5095478;28;20180;-62
2020/12/18 12:05:23;;;;;;;10.75;4.57;;;;;;;;;;5095063;28;20189;-62
2020/12/18 12:07:49;;;;;;;8.23;4.35;;;;;;;;;;5089487;28;20189;-61
2020/12/18 12:10:16;;;;;;;8.30;4.18;;;;;;;;;;5095014;28;20265;-62
2020/12/18 12:12:43;;;;;;;7.03;4.00;;;;;;;;;;5095760;28;20227;-62
2020/12/18 12:15:09;;;;;;;9.75;4.50;;;;;;;;;;5095032;28;20559;-62
2020/12/18 12:17:35;;;;;;;8.13;4.07;;;;;;;;;;5095638;28;20166;-62
2020/12/18 12:20:01;;;;;;;8.13;4.18;;;;;;;;;;5077721;28;20186;-62
2020/12/18 12:22:27;;;;;;;5.95;3.78;;;;;;;;;;5086509;28;20223;-62
2020/12/18 12:24:54;;;;;;;6.32;3.58;;;;;;;;;;5079578;28;20190;-62
2020/12/18 12:27:23;;;;;;;9.82;4.30;;;;;;;;;;5080501;28;20190;-62
2020/12/18 12:29:49;;;;;;;8.45;3.47;;;;;;;;;;5075421;28;20197;-61
2020/12/18 12:32:15;;;;;;;7.80;4.38;;;;;;;;;;5077969;28;20517;-62
2020/12/18 12:34:42;;;;;;;8.43;3.92;;;;;;;;;;5095306;28;20233;-62
2020/12/18 12:37:08;;;;;;;6.50;3.47;;;;;;;;;;5095627;28;20166;-62
2020/12/18 12:39:34;;;;;;;7.60;3.92;;;;;;;;;;5091369;28;20170;-62
2020/12/18 12:42:03;;;;;;;7.30;3.78;;;;;;;;;;5098402;28;20187;-62
2020/12/18 12:44:29;;;;;;;8.23;3.67;;;;;;;;;;5115036;28;20177;-62
2020/12/18 12:46:56;;;;;;;6.95;3.90;;;;;;;;;;5115484;28;20552;-62
2020/12/18 12:49:22;;;;;;;7.32;3.45;;;;;;;;;;5103477;28;20182;-62
2020/12/18 12:51:48;;;;;;;7.50;4.03;;;;;;;;;;5074795;28;20190;-62
2020/12/18 12:54:15;;;;;;;8.13;3.90;;;;;;;;;;5074925;28;20225;-62
2020/12/18 12:56:41;;;;;;;6.35;3.20;;;;;;;;;;5088740;28;20186;-62
2020/12/18 12:59:07;;;;;;;6.75;3.50;;;;;;;;;;5083362;28;20188;-62
2020/12/18 13:01:33;;;;;;;10.98;4.05;;;;;;;;;;5094689;28;20614;-62
2020/12/18 13:03:59;;;;;;;7.47;3.83;;;;;;;;;;5095041;28;20182;-61
2020/12/18 13:06:26;;;;;;;7.13;3.40;;;;;;;;;;5086220;28;20184;-62
2020/12/18 13:08:52;;;;;;;8.65;4.25;;;;;;;;;;5075078;28;20171;-61
2020/12/18 13:11:18;;;;;;;8.65;3.65;;;;;;;;;;5075465;28;20439;-62
2020/12/18 13:13:44;;;;;;;5.30;3.40;;;;;;;;;;5090487;28;20205;-62
2020/12/18 13:16:10;;;;;;;5.85;3.40;;;;;;;;;;5094129;28;20176;-62
2020/12/18 13:18:38;;;;;;;5.88;3.45;;;;;;;;;;5095537;28;20516;-62
2020/12/18 13:21:04;;;;;;;9.27;3.60;;;;;;;;;;5094941;28;20169;-62
2020/12/18 13:23:30;;;;;;;8.23;3.95;;;;;;;;;;5093917;28;20552;-62
2020/12/18 13:25:56;;;;;;;7.10;3.58;;;;;;;;;;5094424;28;20435;-62
2020/12/18 13:28:22;;;;;;;8.63;4.40;;;;;;;;;;5093252;28;20182;-62
2020/12/18 13:30:48;;;;;;;6.63;3.47;;;;;;;;;;5081602;28;20188;-62
2020/12/18 13:33:14;;;;;;;6.43;3.47;;;;;;;;;;5094585;28;20236;-62
2020/12/18 13:35:40;;;;;;;7.75;3.88;;;;;;;;;;5094709;28;20414;-62
2020/12/18 13:38:06;;;;;;;9.32;4.07;;;;;;;;;;5095245;28;20174;-62
2020/12/18 13:40:33;;;;;;;11.40;3.50;;;;;;;;;;5077164;28;20189;-62
2020/12/18 13:42:59;;;;;;;6.05;3.40;;;;;;;;;;5113636;28;20268;-62
2020/12/18 13:45:25;;;;;;;7.53;3.78;;;;;;;;;;5088883;28;20206;-62
2020/12/18 13:47:51;;;;;;;6.00;3.30;;;;;;;;;;5093991;28;20185;-62
2020/12/18 13:50:17;;;;;;;6.55;3.63;;;;;;;;;;5094953;28;20186;-62
2020/12/18 13:52:44;;;;;;;9.20;3.63;;;;;;;;;;5094325;28;20174;-62
2020/12/18 13:55:11;;;;;;;11.27;3.50;;;;;;;;;;5094155;28;20194;-62
2020/12/18 13:57:37;;;;;;;8.07;4.15;;;;;;;;;;5075802;28;20450;-62
2020/12/18 14:00:04;;;;;;;10.05;3.60;;;;;;;;;;5074660;28;20620;-62
2020/12/18 14:02:30;;;;;;;11.00;3.97;;;;;;;;;;5087468;28;20192;-62
2020/12/18 14:04:56;;;;;;;7.47;3.75;;;;;;;;;;5084484;28;20186;-62
2020/12/18 14:07:22;;;;;;;12.88;4.15;;;;;;;;;;5095017;28;20173;-62
2020/12/18 14:09:48;;;;;;;9.05;3.90;;;;;;;;;;5094659;28;20643;-62
2020/12/18 14:12:14;;;;;;;8.90;3.50;;;;;;;;;;5092089;28;20192;-62
2020/12/18 14:14:40;;;;;;;10.18;3.67;;;;;;;;;;5091282;28;20346;-62
2020/12/18 14:17:06;;;;;;;9.63;4.15;;;;;;;;;;5097108;28;20292;-62
2020/12/18 14:19:32;;;;;;;10.63;3.72;;;;;;;;;;5079108;28;20175;-62
2020/12/18 14:22:01;;;;;;;9.25;3.80;;;;;;;;;;5077844;28;20611;-62
2020/12/18 14:24:27;;;;;;;11.68;3.72;;;;;;;;;;5077637;28;20186;-62
2020/12/18 14:26:53;;;;;;;7.90;3.97;;;;;;;;;;5085470;28;20300;-62
2020/12/18 14:29:19;;;;;;;9.50;3.78;;;;;;;;;;5083883;28;20186;-62
2020/12/18 14:31:45;;;;;;;10.50;3.83;;;;;;;;;;5098017;28;20256;-62
2020/12/18 14:34:11;;;;;;;8.52;3.90;;;;;;;;;;5092092;28;20597;-62
2020/12/18 14:36:37;;;;;;;6.47;3.53;;;;;;;;;;5078556;28;20243;-62
2020/12/18 14:39:04;;;;;;;9.95;3.97;;;;;;;;;;5097629;28;20178;-62